Murphy's Hourly Summary for Sunday, March 19, 2017
Hour Temp
(f)
RH
(%)
Solar Rad.
(MJ/m2)
Rainfall
(in)
Wind
(mph)
3/19/2017 12:00 AM 67 79 0 0 1.84
3/19/2017 1:00 AM 66 83 0 0 2.93
3/19/2017 2:00 AM 64 86 0 0 0.16
3/19/2017 3:00 AM 63 90 0 0 0.07
3/19/2017 4:00 AM 63 91 0 0 0.19
3/19/2017 5:00 AM 62 91 0 0 1.36
3/19/2017 6:00 AM 62 91 0 0 2.06
3/19/2017 7:00 AM 61 92 0 0 0.71
3/19/2017 8:00 AM 61 94 0.04 0 1.29
3/19/2017 9:00 AM 64 88 0.45 0 1.84
3/19/2017 10:00 AM 68 78 1.14 0 3.66
3/19/2017 11:00 AM 70 73 1.38 0 4.12
3/19/2017 12:00 PM 73 64 2.3 0 4.06
3/19/2017 1:00 PM 75 61 2.89 0 6.42
3/19/2017 2:00 PM 76 57 3.1 0 7.26
3/19/2017 3:00 PM 79 52 3.16 0 7.44
3/19/2017 4:00 PM 80 49 2.84 0 7.86
3/19/2017 5:00 PM 81 49 2.38 0 7.11
3/19/2017 6:00 PM 81 49 1.06 0 7.66
3/19/2017 7:00 PM 79 51 0.24 0 7.76
3/19/2017 8:00 PM 77 55 0.04 0 6.99
3/19/2017 9:00 PM 75 60 0 0 5.74
3/19/2017 10:00 PM 74 62 0 0 5.62
3/19/2017 11:00 PM 73 61 0 0 5.6
Data Summary 70 71 21.02 0.00 4.16